Time;durP1;ratioP1;P1;durP2;ratioP2;P2;SDS_P1;SDS_P2;PMS_P1;PMS_P2;Temp;Humidity;BMP_temperature;BMP_pressure;BME280_temperature;BME280_humidity;BME280_pressure;Samples;Min_cycle;Max_cycle;Signal;HPM_P1;HPM_P2
2024/01/24 00:01:42;;;;;;;1.30;1.13;;;;;;;;;;5064093;27;87442;-64
2024/01/24 00:04:11;;;;;;;1.03;0.70;;;;;;;;;;5064155;27;87465;-64
2024/01/24 00:06:39;;;;;;;1.17;0.90;;;;;;;;;;5063064;27;89851;-64
2024/01/24 00:09:08;;;;;;;1.70;0.80;;;;;;;;;;5064311;27;87834;-63
2024/01/24 00:11:39;;;;;;;0.77;0.77;;;;;;;;;;5064003;27;87511;-64
2024/01/24 00:14:08;;;;;;;1.30;0.93;;;;;;;;;;5062759;27;87568;-64
2024/01/24 00:16:39;;;;;;;1.77;1.27;;;;;;;;;;5063984;27;89699;-64
2024/01/24 00:19:08;;;;;;;1.30;1.20;;;;;;;;;;5062445;27;89083;-63
2024/01/24 00:21:38;;;;;;;1.23;0.90;;;;;;;;;;5063227;27;87533;-63
2024/01/24 00:24:08;;;;;;;0.93;0.70;;;;;;;;;;5063173;27;87462;-64
2024/01/24 00:26:38;;;;;;;1.87;1.00;;;;;;;;;;5063212;27;90065;-64
2024/01/24 00:29:07;;;;;;;1.00;0.90;;;;;;;;;;5063624;27;88971;-63
2024/01/24 00:31:37;;;;;;;1.40;1.13;;;;;;;;;;5061990;27;87650;-64
2024/01/24 00:34:07;;;;;;;1.47;0.80;;;;;;;;;;5075389;27;87511;-65
2024/01/24 00:36:37;;;;;;;2.53;0.93;;;;;;;;;;5062802;27;92465;-64
2024/01/24 00:39:07;;;;;;;3.57;1.50;;;;;;;;;;5063293;27;88983;-65
2024/01/24 00:41:36;;;;;;;1.73;1.20;;;;;;;;;;5064018;27;87379;-64
2024/01/24 00:44:05;;;;;;;2.67;1.60;;;;;;;;;;5063593;27;87934;-64
2024/01/24 00:46:33;;;;;;;2.57;1.80;;;;;;;;;;5063420;27;89136;-64
2024/01/24 00:49:02;;;;;;;2.10;1.47;;;;;;;;;;5042606;27;91943;-64
2024/01/24 00:51:33;;;;;;;2.13;1.53;;;;;;;;;;5060101;27;87386;-64
2024/01/24 00:54:02;;;;;;;3.20;1.87;;;;;;;;;;5062267;27;87512;-64
2024/01/24 00:56:31;;;;;;;3.23;2.00;;;;;;;;;;5062404;27;89626;-64
2024/01/24 00:58:59;;;;;;;3.57;1.83;;;;;;;;;;5063327;27;89014;-64
2024/01/24 01:01:27;;;;;;;4.40;2.17;;;;;;;;;;5063510;27;87241;-64
2024/01/24 01:03:56;;;;;;;4.00;2.53;;;;;;;;;;5059510;27;87584;-64
2024/01/24 01:06:26;;;;;;;4.17;1.93;;;;;;;;;;5042905;27;89590;-64
2024/01/24 01:08:57;;;;;;;5.43;2.80;;;;;;;;;;5057658;27;89634;-64
2024/01/24 01:11:25;;;;;;;4.07;2.27;;;;;;;;;;5062121;27;87373;-64
2024/01/24 01:13:53;;;;;;;6.00;3.03;;;;;;;;;;5062302;27;87670;-64
2024/01/24 01:16:22;;;;;;;8.43;2.33;;;;;;;;;;5062473;27;89634;-64
2024/01/24 01:18:50;;;;;;;4.07;2.33;;;;;;;;;;5061683;27;89140;-64
2024/01/24 01:21:19;;;;;;;6.13;3.17;;;;;;;;;;5058538;27;87527;-64
2024/01/24 01:23:47;;;;;;;8.17;3.23;;;;;;;;;;5062312;27;87664;-64
2024/01/24 01:26:17;;;;;;;5.50;2.33;;;;;;;;;;5062064;27;89711;-64
2024/01/24 01:28:45;;;;;;;7.57;2.80;;;;;;;;;;5062001;27;89028;-64
2024/01/24 01:31:13;;;;;;;6.90;3.07;;;;;;;;;;5062371;27;87323;-64
2024/01/24 01:33:43;;;;;;;5.03;3.10;;;;;;;;;;5062322;27;87659;-64
2024/01/24 01:36:11;;;;;;;4.90;2.73;;;;;;;;;;5061831;27;90170;-64
2024/01/24 01:38:50;;;;;;;3.83;2.83;;;;;;;;;;5060149;27;88144;-64
2024/01/24 01:41:20;;;;;;;9.47;4.27;;;;;;;;;;5062214;27;87378;-64
2024/01/24 01:43:50;;;;;;;7.37;2.80;;;;;;;;;;5061656;27;87611;-64
2024/01/24 01:46:21;;;;;;;5.10;3.17;;;;;;;;;;5055198;27;88678;-64
2024/01/24 01:48:52;;;;;;;6.87;3.70;;;;;;;;;;5056231;27;87426;-64
2024/01/24 01:51:22;;;;;;;6.63;3.10;;;;;;;;;;5059032;27;87480;-64
2024/01/24 01:53:53;;;;;;;7.60;3.53;;;;;;;;;;5062391;27;87224;-64
2024/01/24 01:56:23;;;;;;;8.60;3.43;;;;;;;;;;5058689;27;89593;-64
2024/01/24 01:58:51;;;;;;;7.57;3.63;;;;;;;;;;5061505;27;89015;-63
2024/01/24 02:01:19;;;;;;;6.53;3.73;;;;;;;;;;5059097;27;87373;-64
2024/01/24 02:03:48;;;;;;;5.23;3.00;;;;;;;;;;5061663;27;87599;-64
2024/01/24 02:06:16;;;;;;;5.47;2.83;;;;;;;;;;5060720;27;89612;-64
2024/01/24 02:08:45;;;;;;;6.37;3.47;;;;;;;;;;5061433;27;87987;-64
2024/01/24 02:11:13;;;;;;;4.73;3.07;;;;;;;;;;5061714;27;87386;-64
2024/01/24 02:13:43;;;;;;;5.93;2.63;;;;;;;;;;5060534;27;87531;-64
2024/01/24 02:16:14;;;;;;;5.50;2.57;;;;;;;;;;5061285;27;89177;-64
2024/01/24 02:18:48;;;;;;;4.80;2.43;;;;;;;;;;5059780;27;89040;-64
2024/01/24 02:21:17;;;;;;;6.27;3.73;;;;;;;;;;5061722;27;87414;-65
2024/01/24 02:23:47;;;;;;;7.20;2.03;;;;;;;;;;5061483;27;87623;-63
2024/01/24 02:26:19;;;;;;;7.27;3.20;;;;;;;;;;5061083;27;89619;-64
2024/01/24 02:28:47;;;;;;;3.80;2.23;;;;;;;;;;5060147;27;87833;-64
2024/01/24 02:31:16;;;;;;;8.33;3.43;;;;;;;;;;5060989;27;87254;-64
2024/01/24 02:33:44;;;;;;;4.63;2.93;;;;;;;;;;5061396;27;87628;-64
2024/01/24 02:36:15;;;;;;;5.27;2.87;;;;;;;;;;5061311;27;89277;-64
2024/01/24 02:38:43;;;;;;;6.13;3.43;;;;;;;;;;5058843;27;88993;-64
2024/01/24 02:41:12;;;;;;;6.00;3.00;;;;;;;;;;5061309;27;87469;-64
2024/01/24 02:43:41;;;;;;;5.83;2.73;;;;;;;;;;5058527;27;87414;-64
2024/01/24 02:46:10;;;;;;;5.37;2.80;;;;;;;;;;5057678;27;88443;-64
2024/01/24 02:48:40;;;;;;;7.10;2.73;;;;;;;;;;5060910;27;88044;-65
2024/01/24 02:51:09;;;;;;;4.00;2.43;;;;;;;;;;5061027;27;87430;-64
2024/01/24 02:53:37;;;;;;;7.40;2.77;;;;;;;;;;5060877;27;87496;-64
2024/01/24 02:56:06;;;;;;;4.70;2.40;;;;;;;;;;5060470;27;89641;-64
2024/01/24 02:58:36;;;;;;;3.90;2.60;;;;;;;;;;5060901;27;87386;-64
2024/01/24 03:01:06;;;;;;;2.87;2.13;;;;;;;;;;5060747;27;87396;-64
2024/01/24 03:03:34;;;;;;;4.57;2.90;;;;;;;;;;5060091;27;87655;-64
2024/01/24 03:06:03;;;;;;;7.93;2.53;;;;;;;;;;5061002;27;88703;-65
2024/01/24 03:08:32;;;;;;;8.27;2.63;;;;;;;;;;5061032;27;89012;-64
2024/01/24 03:11:00;;;;;;;2.83;1.90;;;;;;;;;;5058578;27;87385;-64
2024/01/24 03:13:30;;;;;;;7.93;3.23;;;;;;;;;;5060710;27;87615;-64
2024/01/24 03:16:01;;;;;;;3.80;1.80;;;;;;;;;;5060251;27;87461;-64
2024/01/24 03:18:33;;;;;;;4.73;2.47;;;;;;;;;;5063345;27;87952;-64
2024/01/24 03:21:01;;;;;;;4.13;2.70;;;;;;;;;;5061193;27;87513;-64
2024/01/24 03:23:30;;;;;;;3.07;1.90;;;;;;;;;;5064009;27;87640;-65
2024/01/24 03:26:00;;;;;;;6.27;1.73;;;;;;;;;;5063335;27;88554;-64
2024/01/24 03:28:29;;;;;;;3.40;2.40;;;;;;;;;;5063808;27;89114;-64
2024/01/24 03:30:58;;;;;;;4.30;1.87;;;;;;;;;;5063810;27;87477;-64
2024/01/24 03:33:27;;;;;;;3.97;2.17;;;;;;;;;;5061243;27;87594;-64
2024/01/24 03:35:57;;;;;;;2.50;2.00;;;;;;;;;;5064168;27;89748;-64
2024/01/24 03:38:27;;;;;;;6.10;2.23;;;;;;;;;;5063503;27;89766;-64
2024/01/24 03:40:55;;;;;;;2.53;1.87;;;;;;;;;;5063749;27;87419;-64
2024/01/24 03:43:24;;;;;;;4.30;2.00;;;;;;;;;;5063760;27;87882;-64
2024/01/24 03:45:52;;;;;;;5.47;1.97;;;;;;;;;;5063816;27;89523;-64
2024/01/24 03:48:22;;;;;;;4.13;2.30;;;;;;;;;;5061207;27;89172;-64
2024/01/24 03:50:51;;;;;;;4.63;2.67;;;;;;;;;;5061724;27;88128;-63
2024/01/24 03:53:21;;;;;;;5.83;2.00;;;;;;;;;;5058192;27;87614;-63
2024/01/24 03:55:49;;;;;;;3.63;2.10;;;;;;;;;;5059490;27;88296;-63
2024/01/24 03:58:18;;;;;;;6.70;2.83;;;;;;;;;;5063290;27;88949;-63
2024/01/24 04:00:52;;;;;;;3.20;2.47;;;;;;;;;;5063187;27;87299;-63
2024/01/24 04:03:21;;;;;;;3.67;1.90;;;;;;;;;;5061637;27;87553;-65
2024/01/24 04:05:49;;;;;;;6.03;2.63;;;;;;;;;;5063293;27;91423;-65
2024/01/24 04:08:19;;;;;;;4.27;2.53;;;;;;;;;;5062715;27;89109;-64
2024/01/24 04:10:51;;;;;;;2.53;2.30;;;;;;;;;;5062478;27;88095;-64
2024/01/24 04:13:19;;;;;;;4.43;2.23;;;;;;;;;;5060542;27;87520;-64
2024/01/24 04:15:50;;;;;;;4.27;2.20;;;;;;;;;;5063858;27;89536;-64
2024/01/24 04:18:18;;;;;;;5.33;3.60;;;;;;;;;;5063390;27;90214;-64
2024/01/24 04:20:47;;;;;;;5.20;2.50;;;;;;;;;;5057813;27;87677;-65
2024/01/24 04:23:15;;;;;;;7.13;2.57;;;;;;;;;;5063713;27;87654;-64
2024/01/24 04:25:43;;;;;;;3.17;2.27;;;;;;;;;;5063877;27;89653;-63
2024/01/24 04:28:14;;;;;;;7.07;2.43;;;;;;;;;;5057227;27;88856;-64
2024/01/24 04:30:43;;;;;;;4.23;2.70;;;;;;;;;;5043476;27;87330;-64
2024/01/24 04:33:14;;;;;;;4.83;2.63;;;;;;;;;;5043306;28;87714;-64
2024/01/24 04:35:43;;;;;;;5.17;2.80;;;;;;;;;;5043560;27;88401;-64
2024/01/24 04:38:12;;;;;;;3.77;2.27;;;;;;;;;;5043238;27;87779;-64
2024/01/24 04:40:41;;;;;;;5.53;2.87;;;;;;;;;;5041901;27;87603;-64
2024/01/24 04:43:11;;;;;;;6.17;3.03;;;;;;;;;;5060194;27;88021;-64
2024/01/24 04:45:41;;;;;;;4.33;2.83;;;;;;;;;;5054505;27;89532;-63
2024/01/24 04:48:10;;;;;;;7.80;3.70;;;;;;;;;;5058129;27;89114;-64
2024/01/24 04:50:40;;;;;;;3.70;2.50;;;;;;;;;;5061246;27;87542;-64
2024/01/24 04:53:09;;;;;;;3.90;2.37;;;;;;;;;;5048247;27;87492;-64
2024/01/24 04:55:39;;;;;;;3.30;2.03;;;;;;;;;;5041951;27;89614;-65
2024/01/24 04:58:07;;;;;;;5.30;2.53;;;;;;;;;;5055597;27;88067;-64
2024/01/24 05:00:36;;;;;;;5.67;2.83;;;;;;;;;;5061293;27;87370;-64
2024/01/24 05:03:06;;;;;;;3.57;2.50;;;;;;;;;;5050979;27;87721;-64
2024/01/24 05:05:34;;;;;;;3.77;2.77;;;;;;;;;;5042864;27;89562;-65
2024/01/24 05:08:05;;;;;;;3.37;2.77;;;;;;;;;;5056466;27;88101;-65
2024/01/24 05:10:33;;;;;;;4.37;2.53;;;;;;;;;;5062758;27;87288;-64
2024/01/24 05:13:02;;;;;;;7.77;2.70;;;;;;;;;;5056906;27;88058;-64
2024/01/24 05:15:30;;;;;;;4.10;2.93;;;;;;;;;;5063336;27;88520;-64
2024/01/24 05:18:00;;;;;;;5.97;3.27;;;;;;;;;;5062266;27;88235;-64
2024/01/24 05:20:30;;;;;;;6.23;2.80;;;;;;;;;;5046990;27;87476;-64
2024/01/24 05:22:58;;;;;;;7.13;2.63;;;;;;;;;;5059463;27;87459;-64
2024/01/24 05:25:27;;;;;;;5.40;2.90;;;;;;;;;;5042553;28;89491;-64
2024/01/24 05:27:57;;;;;;;5.87;2.63;;;;;;;;;;5050652;27;89190;-64
2024/01/24 05:30:26;;;;;;;4.10;1.93;;;;;;;;;;5059658;27;87694;-64
2024/01/24 05:33:03;;;;;;;4.43;2.47;;;;;;;;;;5061722;27;87574;-65
2024/01/24 05:35:36;;;;;;;5.33;2.50;;;;;;;;;;5053789;27;89746;-65
2024/01/24 05:38:05;;;;;;;6.97;2.73;;;;;;;;;;5054942;27;89290;-65
2024/01/24 05:40:34;;;;;;;5.70;2.93;;;;;;;;;;5060135;27;87402;-64
2024/01/24 05:43:03;;;;;;;3.60;2.60;;;;;;;;;;5062752;27;87997;-64
2024/01/24 05:45:32;;;;;;;4.20;1.87;;;;;;;;;;5062819;27;89625;-64
2024/01/24 05:48:02;;;;;;;7.17;2.50;;;;;;;;;;5061872;27;87971;-64
2024/01/24 05:50:31;;;;;;;7.10;2.40;;;;;;;;;;5062734;27;87333;-64
2024/01/24 05:53:02;;;;;;;6.77;2.40;;;;;;;;;;5058250;27;87636;-64
2024/01/24 05:55:34;;;;;;;4.23;2.57;;;;;;;;;;5041588;27;90072;-64
2024/01/24 05:58:02;;;;;;;3.73;2.37;;;;;;;;;;5042047;27;89049;-64
2024/01/24 06:00:31;;;;;;;4.87;2.60;;;;;;;;;;5059834;27;87364;-64
2024/01/24 06:03:03;;;;;;;5.87;1.93;;;;;;;;;;5062406;27;88279;-64
2024/01/24 06:05:32;;;;;;;4.00;2.17;;;;;;;;;;5062080;27;88416;-65
2024/01/24 06:08:03;;;;;;;2.63;1.50;;;;;;;;;;5056818;27;89128;-64
2024/01/24 06:10:34;;;;;;;3.57;2.10;;;;;;;;;;5062620;27;87295;-64
2024/01/24 06:13:03;;;;;;;4.20;2.43;;;;;;;;;;5053343;27;87524;-64
2024/01/24 06:15:31;;;;;;;6.27;2.37;;;;;;;;;;5041583;27;89214;-64
2024/01/24 06:18:01;;;;;;;5.23;2.13;;;;;;;;;;5048317;27;89024;-64
2024/01/24 06:20:30;;;;;;;6.33;2.40;;;;;;;;;;5041931;28;87319;-64
2024/01/24 06:22:59;;;;;;;5.63;2.10;;;;;;;;;;5057365;27;87602;-64
2024/01/24 06:25:28;;;;;;;6.00;1.87;;;;;;;;;;5060831;27;88469;-64
2024/01/24 06:27:57;;;;;;;6.50;1.90;;;;;;;;;;5066584;27;89062;-64
2024/01/24 06:30:28;;;;;;;5.27;2.30;;;;;;;;;;5062195;27;87411;-63
2024/01/24 06:32:58;;;;;;;1.90;1.67;;;;;;;;;;5060199;27;87465;-64
2024/01/24 06:35:27;;;;;;;4.23;1.70;;;;;;;;;;5075143;27;87249;-65
2024/01/24 06:37:56;;;;;;;4.57;2.20;;;;;;;;;;5050367;27;88864;-64
2024/01/24 06:40:25;;;;;;;6.67;2.90;;;;;;;;;;5060116;27;89566;-64
2024/01/24 06:42:54;;;;;;;4.90;1.93;;;;;;;;;;5054674;27;87595;-64
2024/01/24 06:45:23;;;;;;;4.53;1.93;;;;;;;;;;5054550;27;88565;-65
2024/01/24 06:47:51;;;;;;;3.73;2.20;;;;;;;;;;5041194;27;89191;-64
2024/01/24 06:50:20;;;;;;;5.13;2.07;;;;;;;;;;5049370;27;87520;-64
2024/01/24 06:52:48;;;;;;;7.27;2.30;;;;;;;;;;5062066;27;87638;-64
2024/01/24 06:55:17;;;;;;;6.30;1.63;;;;;;;;;;5064176;27;89373;-64
2024/01/24 06:57:47;;;;;;;3.33;1.87;;;;;;;;;;5064022;27;89580;-65
2024/01/24 07:00:18;;;;;;;5.53;1.77;;;;;;;;;;5047489;27;87659;-64
2024/01/24 07:02:48;;;;;;;9.00;1.47;;;;;;;;;;5045918;27;87773;-64
2024/01/24 07:05:18;;;;;;;5.80;1.70;;;;;;;;;;5053284;27;88288;-64
2024/01/24 07:07:47;;;;;;;4.27;1.30;;;;;;;;;;5057907;27;89039;-64
2024/01/24 07:10:16;;;;;;;1.47;0.97;;;;;;;;;;5064694;27;87435;-65
2024/01/24 07:12:45;;;;;;;4.20;1.47;;;;;;;;;;5056259;27;89028;-65
2024/01/24 07:15:20;;;;;;;1.73;1.20;;;;;;;;;;5053603;27;92393;-65
2024/01/24 07:17:51;;;;;;;3.90;1.70;;;;;;;;;;5058588;27;87815;-64
2024/01/24 07:20:19;;;;;;;4.60;1.73;;;;;;;;;;5050233;27;89324;-64
2024/01/24 07:22:49;;;;;;;1.13;0.83;;;;;;;;;;5051216;27;87784;-64
2024/01/24 07:25:20;;;;;;;6.37;1.43;;;;;;;;;;5060769;27;89569;-64
2024/01/24 07:27:50;;;;;;;3.83;1.23;;;;;;;;;;5072249;27;89247;-65
2024/01/24 07:30:22;;;;;;;3.60;1.30;;;;;;;;;;5064463;27;87962;-64
2024/01/24 07:32:51;;;;;;;2.20;1.30;;;;;;;;;;5061455;27;88814;-65
2024/01/24 07:35:19;;;;;;;4.80;1.10;;;;;;;;;;5056109;27;89655;-65
2024/01/24 07:37:49;;;;;;;6.47;1.70;;;;;;;;;;5062005;27;89143;-65
2024/01/24 07:40:18;;;;;;;3.87;1.63;;;;;;;;;;5064598;27;87489;-64
2024/01/24 07:42:49;;;;;;;1.73;1.03;;;;;;;;;;5064350;27;87631;-63
2024/01/24 07:45:19;;;;;;;3.33;1.33;;;;;;;;;;5064803;27;89719;-64
2024/01/24 07:47:49;;;;;;;2.50;1.10;;;;;;;;;;5064599;27;89055;-64
2024/01/24 07:50:18;;;;;;;5.70;1.70;;;;;;;;;;5064848;27;87287;-63
2024/01/24 07:52:48;;;;;;;2.50;1.00;;;;;;;;;;5052967;27;88221;-64
2024/01/24 07:55:18;;;;;;;2.53;1.17;;;;;;;;;;5052227;27;88388;-64
2024/01/24 07:58:01;;;;;;;3.87;1.37;;;;;;;;;;5063851;27;89024;-64
2024/01/24 08:00:31;;;;;;;9.23;1.43;;;;;;;;;;5064498;27;87315;-65
2024/01/24 08:03:00;;;;;;;4.53;1.50;;;;;;;;;;5063779;27;87570;-64
2024/01/24 08:05:29;;;;;;;2.77;1.53;;;;;;;;;;5063316;27;89646;-64
2024/01/24 08:07:58;;;;;;;6.33;1.27;;;;;;;;;;5051309;27;88942;-64
2024/01/24 08:10:26;;;;;;;2.50;1.10;;;;;;;;;;5050680;27;87357;-65
2024/01/24 08:12:55;;;;;;;2.37;1.00;;;;;;;;;;5060533;27;87367;-64
2024/01/24 08:15:23;;;;;;;3.07;1.43;;;;;;;;;;5055607;27;89691;-64
2024/01/24 08:17:53;;;;;;;4.93;1.37;;;;;;;;;;5051761;27;89099;-64
2024/01/24 08:20:23;;;;;;;2.57;1.20;;;;;;;;;;5061971;27;87548;-64
2024/01/24 08:22:51;;;;;;;1.70;1.40;;;;;;;;;;5062095;27;87609;-64
2024/01/24 08:25:20;;;;;;;4.37;1.83;;;;;;;;;;5060390;27;89361;-64
2024/01/24 08:27:51;;;;;;;3.63;1.40;;;;;;;;;;5056929;27;91770;-64
2024/01/24 08:30:19;;;;;;;1.40;1.10;;;;;;;;;;5058417;27;87751;-64
2024/01/24 08:32:48;;;;;;;3.20;0.77;;;;;;;;;;5060848;27;89131;-64
2024/01/24 08:35:20;;;;;;;4.90;1.23;;;;;;;;;;5048093;27;89587;-64
2024/01/24 08:37:48;;;;;;;3.80;1.23;;;;;;;;;;5062692;27;89041;-64
2024/01/24 08:40:18;;;;;;;3.60;1.07;;;;;;;;;;5057608;27;87374;-63
2024/01/24 08:42:47;;;;;;;2.20;1.00;;;;;;;;;;5043648;27;89529;-63
2024/01/24 08:45:17;;;;;;;3.03;0.97;;;;;;;;;;5062315;27;89721;-64
2024/01/24 08:47:45;;;;;;;3.63;1.33;;;;;;;;;;5062189;27;89114;-63
2024/01/24 08:50:15;;;;;;;1.33;0.73;;;;;;;;;;5063753;27;87380;-63
2024/01/24 08:52:46;;;;;;;2.63;0.93;;;;;;;;;;5049077;27;87669;-64
2024/01/24 08:55:16;;;;;;;3.57;1.57;;;;;;;;;;5043135;28;89641;-64
2024/01/24 08:57:44;;;;;;;0.90;0.77;;;;;;;;;;5058425;27;88720;-64
2024/01/24 09:00:16;;;;;;;4.90;1.50;;;;;;;;;;5044948;27;87663;-64
2024/01/24 09:02:45;;;;;;;2.33;1.00;;;;;;;;;;5063322;27;87469;-64
2024/01/24 09:05:15;;;;;;;3.40;1.43;;;;;;;;;;5063252;27;88942;-64
2024/01/24 09:07:45;;;;;;;4.37;0.60;;;;;;;;;;5059041;27;89136;-64
2024/01/24 09:10:14;;;;;;;1.77;0.73;;;;;;;;;;5053199;27;87623;-65
2024/01/24 09:12:46;;;;;;;1.63;0.90;;;;;;;;;;5058185;27;87548;-64
2024/01/24 09:15:16;;;;;;;0.80;0.70;;;;;;;;;;5062970;27;89709;-63
2024/01/24 09:17:45;;;;;;;5.53;0.97;;;;;;;;;;5063312;27;89349;-64
2024/01/24 09:20:14;;;;;;;2.60;0.90;;;;;;;;;;5063342;27;87310;-64
2024/01/24 09:22:43;;;;;;;4.30;1.03;;;;;;;;;;5061045;27;87639;-64
2024/01/24 09:25:12;;;;;;;1.10;0.90;;;;;;;;;;5062993;27;88641;-64
2024/01/24 09:27:43;;;;;;;2.00;0.70;;;;;;;;;;5063085;27;88992;-63
2024/01/24 09:30:13;;;;;;;3.23;0.90;;;;;;;;;;5063027;27;87358;-64
2024/01/24 09:32:41;;;;;;;4.80;1.27;;;;;;;;;;5059206;27;87620;-64
2024/01/24 09:35:10;;;;;;;4.70;1.03;;;;;;;;;;5048845;27;89417;-65
2024/01/24 09:37:39;;;;;;;2.53;0.97;;;;;;;;;;5063035;27;89030;-64
2024/01/24 09:40:09;;;;;;;2.43;1.10;;;;;;;;;;5063023;27;87283;-64
2024/01/24 09:42:41;;;;;;;0.97;0.57;;;;;;;;;;5062242;27;87511;-64
2024/01/24 09:45:10;;;;;;;1.67;0.80;;;;;;;;;;5057186;27;88363;-64
2024/01/24 09:47:39;;;;;;;3.37;1.27;;;;;;;;;;5062566;27;87979;-64
2024/01/24 09:50:07;;;;;;;3.50;0.83;;;;;;;;;;5063027;27;87053;-64
2024/01/24 09:52:36;;;;;;;1.73;0.97;;;;;;;;;;5060891;27;87592;-64
2024/01/24 09:55:05;;;;;;;0.87;0.83;;;;;;;;;;5058145;27;89540;-64
2024/01/24 09:57:34;;;;;;;3.33;1.10;;;;;;;;;;5045642;27;89394;-64
2024/01/24 10:00:04;;;;;;;2.03;0.50;;;;;;;;;;5055749;27;87993;-64
2024/01/24 10:02:33;;;;;;;5.17;1.27;;;;;;;;;;5058876;27;87346;-64
2024/01/24 10:05:01;;;;;;;3.70;0.93;;;;;;;;;;5062315;27;89631;-64
2024/01/24 10:07:30;;;;;;;2.03;0.67;;;;;;;;;;5059855;27;89256;-64
2024/01/24 10:10:08;;;;;;;4.80;1.67;;;;;;;;;;5062770;27;87235;-64
2024/01/24 10:12:38;;;;;;;4.23;0.83;;;;;;;;;;5061375;27;89590;-65
2024/01/24 10:15:08;;;;;;;0.83;0.47;;;;;;;;;;5059967;27;89421;-65
2024/01/24 10:17:37;;;;;;;2.93;0.93;;;;;;;;;;5061515;27;89683;-65
2024/01/24 10:20:07;;;;;;;3.73;1.00;;;;;;;;;;5061725;27;87282;-65
2024/01/24 10:22:35;;;;;;;1.77;0.63;;;;;;;;;;5061753;27;87619;-65
2024/01/24 10:25:04;;;;;;;2.17;1.00;;;;;;;;;;5056864;27;89653;-65
2024/01/24 10:27:34;;;;;;;1.37;0.97;;;;;;;;;;5041664;27;89187;-64
2024/01/24 10:30:03;;;;;;;2.10;1.27;;;;;;;;;;5041345;27;87380;-64
2024/01/24 10:32:36;;;;;;;1.47;1.07;;;;;;;;;;5041056;27;87190;-64
2024/01/24 10:35:05;;;;;;;4.20;1.27;;;;;;;;;;5056755;27;88939;-64
2024/01/24 10:37:34;;;;;;;8.07;1.30;;;;;;;;;;5061629;27;88723;-63
2024/01/24 10:40:11;;;;;;;1.73;0.93;;;;;;;;;;5062395;27;87298;-63
2024/01/24 10:42:44;;;;;;;1.30;0.80;;;;;;;;;;5051426;27;87487;-62
2024/01/24 10:45:15;;;;;;;10.97;1.27;;;;;;;;;;5040380;27;88691;-63
2024/01/24 10:47:45;;;;;;;7.87;1.70;;;;;;;;;;5054728;27;88952;-63
2024/01/24 10:50:13;;;;;;;2.20;0.97;;;;;;;;;;5061597;27;87872;-62
2024/01/24 10:52:43;;;;;;;2.23;0.80;;;;;;;;;;5062196;27;87494;-63
2024/01/24 10:55:12;;;;;;;3.37;1.53;;;;;;;;;;5050182;27;88721;-63
2024/01/24 10:57:42;;;;;;;3.47;0.80;;;;;;;;;;5061131;27;88172;-62
2024/01/24 11:00:15;;;;;;;1.40;0.73;;;;;;;;;;5047264;27;87513;-63
2024/01/24 11:02:45;;;;;;;1.80;1.00;;;;;;;;;;5041194;27;87530;-63
2024/01/24 11:05:16;;;;;;;5.10;1.20;;;;;;;;;;5043786;27;88531;-63
2024/01/24 11:07:49;;;;;;;0.83;0.63;;;;;;;;;;5061770;27;89165;-63
2024/01/24 11:10:18;;;;;;;2.60;0.90;;;;;;;;;;5044948;27;87511;-63
2024/01/24 11:12:48;;;;;;;3.07;0.70;;;;;;;;;;5060521;27;87345;-63
2024/01/24 11:15:18;;;;;;;2.77;1.33;;;;;;;;;;5060747;27;88579;-63
2024/01/24 11:17:51;;;;;;;1.20;0.77;;;;;;;;;;5056190;27;89233;-63
2024/01/24 11:20:20;;;;;;;1.50;1.33;;;;;;;;;;5055288;27;87642;-63
2024/01/24 11:22:49;;;;;;;3.80;0.87;;;;;;;;;;5061107;27;87654;-63
2024/01/24 11:25:20;;;;;;;0.40;0.40;;;;;;;;;;5060669;27;88612;-63
2024/01/24 11:27:49;;;;;;;2.70;0.83;;;;;;;;;;5060624;27;89069;-63
2024/01/24 11:30:18;;;;;;;1.00;0.47;;;;;;;;;;5060945;27;87315;-63
2024/01/24 11:33:05;;;;;;;1.17;0.73;;;;;;;;;;5058399;27;87388;-63
2024/01/24 11:35:36;;;;;;;1.83;0.80;;;;;;;;;;5050558;27;91704;-63
2024/01/24 11:38:06;;;;;;;1.23;0.87;;;;;;;;;;5052133;27;88257;-63
2024/01/24 11:40:52;;;;;;;1.03;0.67;;;;;;;;;;5061490;27;87428;-62
2024/01/24 11:43:24;;;;;;;4.07;1.13;;;;;;;;;;5062485;27;87587;-64
2024/01/24 11:45:52;;;;;;;1.87;0.67;;;;;;;;;;5057596;27;89706;-64
2024/01/24 11:48:22;;;;;;;1.60;0.57;;;;;;;;;;5060472;27;90196;-65
2024/01/24 11:50:55;;;;;;;3.10;0.87;;;;;;;;;;5059440;27;87266;-64
2024/01/24 11:53:23;;;;;;;9.27;1.00;;;;;;;;;;5064461;27;87563;-65
2024/01/24 11:55:53;;;;;;;0.77;0.57;;;;;;;;;;5063061;27;89381;-64
2024/01/24 11:58:25;;;;;;;3.60;1.10;;;;;;;;;;5061400;27;87722;-63
2024/01/24 12:00:55;;;;;;;3.93;1.13;;;;;;;;;;5063489;27;87153;-62
2024/01/24 12:03:26;;;;;;;2.43;0.87;;;;;;;;;;5063212;27;87716;-63
2024/01/24 12:05:55;;;;;;;1.60;0.90;;;;;;;;;;5056835;27;88761;-64
2024/01/24 12:08:23;;;;;;;3.07;0.90;;;;;;;;;;5058443;27;87828;-63
2024/01/24 12:10:54;;;;;;;3.17;0.80;;;;;;;;;;5063689;27;87297;-64
2024/01/24 12:13:25;;;;;;;6.83;1.10;;;;;;;;;;5063995;27;87669;-62
2024/01/24 12:15:54;;;;;;;3.67;1.10;;;;;;;;;;5063078;27;88494;-63
2024/01/24 12:18:24;;;;;;;4.73;1.73;;;;;;;;;;5063933;27;89225;-62
2024/01/24 12:20:55;;;;;;;3.03;0.90;;;;;;;;;;5064053;27;87391;-62
2024/01/24 12:23:28;;;;;;;1.20;0.87;;;;;;;;;;5063559;27;87571;-62
2024/01/24 12:25:58;;;;;;;4.03;1.37;;;;;;;;;;5063305;27;89689;-63
2024/01/24 12:28:27;;;;;;;2.13;1.00;;;;;;;;;;5063616;27;90021;-63
2024/01/24 12:30:58;;;;;;;2.97;1.20;;;;;;;;;;5058655;27;87501;-64
2024/01/24 12:33:32;;;;;;;5.60;1.07;;;;;;;;;;5063803;27;88638;-63
2024/01/24 12:36:06;;;;;;;3.83;1.20;;;;;;;;;;5057686;27;89578;-61
2024/01/24 12:38:36;;;;;;;10.87;1.20;;;;;;;;;;5051910;27;89025;-63
2024/01/24 12:41:05;;;;;;;2.67;1.13;;;;;;;;;;5058932;27;87417;-63
2024/01/24 12:43:35;;;;;;;1.20;0.90;;;;;;;;;;5058582;27;87651;-63
2024/01/24 12:46:07;;;;;;;7.23;1.13;;;;;;;;;;5062976;27;88911;-63
2024/01/24 12:48:37;;;;;;;3.70;0.90;;;;;;;;;;5062754;27;89281;-63
2024/01/24 12:51:07;;;;;;;4.00;1.07;;;;;;;;;;5063274;27;87638;-63
2024/01/24 12:53:37;;;;;;;1.83;0.60;;;;;;;;;;5063039;27;87498;-63
2024/01/24 12:56:06;;;;;;;4.13;1.40;;;;;;;;;;5061954;27;88387;-63
2024/01/24 12:58:35;;;;;;;9.23;1.20;;;;;;;;;;5062972;27;88956;-63
2024/01/24 13:01:06;;;;;;;9.80;1.30;;;;;;;;;;5063457;27;87183;-63
2024/01/24 13:03:34;;;;;;;2.30;1.10;;;;;;;;;;5063507;27;87330;-63
2024/01/24 13:06:05;;;;;;;4.73;1.07;;;;;;;;;;5063062;27;89661;-63
2024/01/24 13:08:36;;;;;;;4.00;1.50;;;;;;;;;;5062081;27;89144;-63
2024/01/24 13:11:04;;;;;;;5.00;1.30;;;;;;;;;;5063043;27;87192;-63
2024/01/24 13:13:33;;;;;;;1.17;0.90;;;;;;;;;;5063127;27;87275;-63
2024/01/24 13:16:02;;;;;;;6.90;1.57;;;;;;;;;;5060640;27;88626;-62
2024/01/24 13:18:31;;;;;;;4.13;1.40;;;;;;;;;;5056835;27;90133;-63
2024/01/24 13:21:00;;;;;;;4.50;1.13;;;;;;;;;;5063263;27;87474;-64
2024/01/24 13:23:29;;;;;;;9.17;1.57;;;;;;;;;;5058952;27;87664;-62
2024/01/24 13:25:58;;;;;;;3.20;1.03;;;;;;;;;;5062896;27;89618;-62
2024/01/24 13:28:27;;;;;;;13.53;1.67;;;;;;;;;;5063174;27;89478;-62
2024/01/24 13:30:56;;;;;;;9.30;1.87;;;;;;;;;;5060632;27;87457;-61
2024/01/24 13:33:25;;;;;;;6.37;1.27;;;;;;;;;;5062378;27;87510;-62
2024/01/24 13:35:53;;;;;;;4.80;1.70;;;;;;;;;;5057870;27;89482;-62
2024/01/24 13:38:24;;;;;;;7.67;1.57;;;;;;;;;;5049676;27;88943;-62
2024/01/24 13:40:56;;;;;;;7.83;1.57;;;;;;;;;;5063199;27;87286;-62
2024/01/24 13:43:23;;;;;;;8.50;1.80;;;;;;;;;;5061784;27;88561;-62
2024/01/24 13:45:51;;;;;;;16.40;2.17;;;;;;;;;;5062166;27;88399;-62
2024/01/24 13:48:21;;;;;;;2.90;1.23;;;;;;;;;;5062295;27;89122;-62
2024/01/24 13:50:50;;;;;;;4.77;1.17;;;;;;;;;;5059713;27;88130;-61
2024/01/24 13:53:20;;;;;;;4.53;0.83;;;;;;;;;;5047172;27;87464;-62
2024/01/24 13:55:49;;;;;;;8.40;1.50;;;;;;;;;;5061203;27;89742;-62
2024/01/24 13:58:19;;;;;;;8.30;1.43;;;;;;;;;;5061674;27;88975;-62
2024/01/24 14:00:50;;;;;;;6.10;1.40;;;;;;;;;;5058489;27;87481;-62
2024/01/24 14:03:19;;;;;;;4.10;1.03;;;;;;;;;;5047928;27;87624;-62
2024/01/24 14:05:47;;;;;;;3.80;1.03;;;;;;;;;;5057750;27;88461;-62
2024/01/24 14:08:16;;;;;;;4.37;1.30;;;;;;;;;;5051470;27;88554;-62
2024/01/24 14:10:45;;;;;;;7.03;1.60;;;;;;;;;;5062386;27;87414;-62
2024/01/24 14:13:14;;;;;;;4.50;1.40;;;;;;;;;;5054048;27;87510;-63
2024/01/24 14:15:44;;;;;;;18.47;8.17;;;;;;;;;;5055163;27;89591;-62
2024/01/24 14:18:16;;;;;;;113.13;64.47;;;;;;;;;;5061793;27;87873;-62
2024/01/24 14:20:45;;;;;;;87.67;44.43;;;;;;;;;;5061145;27;87473;-62
2024/01/24 14:23:14;;;;;;;68.00;38.60;;;;;;;;;;5055424;27;87724;-63
2024/01/24 14:25:43;;;;;;;76.03;41.93;;;;;;;;;;5054320;27;89614;-63
2024/01/24 14:28:12;;;;;;;68.23;36.63;;;;;;;;;;5054265;27;89144;-62
2024/01/24 14:30:42;;;;;;;55.07;31.23;;;;;;;;;;5055005;27;87518;-62
2024/01/24 14:33:13;;;;;;;51.13;28.83;;;;;;;;;;5059236;27;87707;-62
2024/01/24 14:35:51;;;;;;;41.17;24.73;;;;;;;;;;5055751;27;89756;-62
2024/01/24 14:38:20;;;;;;;35.70;20.50;;;;;;;;;;5054958;27;87416;-62
2024/01/24 14:40:48;;;;;;;37.80;20.57;;;;;;;;;;5058129;27;88218;-62
2024/01/24 14:43:17;;;;;;;35.57;18.77;;;;;;;;;;5043899;27;87638;-62
2024/01/24 14:45:46;;;;;;;26.10;15.47;;;;;;;;;;5040798;27;88498;-62
2024/01/24 14:48:18;;;;;;;23.53;13.73;;;;;;;;;;5060725;27;87993;-63
2024/01/24 14:50:47;;;;;;;21.23;13.00;;;;;;;;;;5046606;27;87282;-63
2024/01/24 14:53:16;;;;;;;24.03;13.50;;;;;;;;;;5046524;27;87654;-63
2024/01/24 14:55:44;;;;;;;22.17;11.37;;;;;;;;;;5043864;27;88593;-62